Time;durP1;ratioP1;P1;durP2;ratioP2;P2;SDS_P1;SDS_P2;PMS_P1;PMS_P2;Temp;Humidity;BMP_temperature;BMP_pressure;BME280_temperature;BME280_humidity;BME280_pressure;Samples;Min_cycle;Max_cycle;Signal;HPM_P1;HPM_P2
2023/08/31 00:01:33;;;;;;;4.63;4.27;;;17.90;99.90;;;;;;5013012;28;20941;-41
2023/08/31 00:04:00;;;;;;;4.17;3.77;;;18.30;99.90;;;;;;5012736;28;20515;-41
2023/08/31 00:06:27;;;;;;;4.73;3.60;;;18.30;99.90;;;;;;5013141;28;20444;-41
2023/08/31 00:08:53;;;;;;;4.70;4.30;;;18.10;99.90;;;;;;5012935;28;20439;-44
2023/08/31 00:11:20;;;;;;;4.17;3.77;;;17.80;99.90;;;;;;5013501;28;20938;-41
2023/08/31 00:13:47;;;;;;;4.70;4.00;;;18.10;99.90;;;;;;5013270;28;20491;-42
2023/08/31 00:16:14;;;;;;;5.43;4.33;;;18.10;99.90;;;;;;5013772;28;20535;-43
2023/08/31 00:18:42;;;;;;;4.67;3.93;;;18.10;99.90;;;;;;5017730;28;20436;-43
2023/08/31 00:21:09;;;;;;;5.90;3.97;;;18.10;99.90;;;;;;5022661;28;20530;-42
2023/08/31 00:23:37;;;;;;;7.73;5.23;;;17.90;99.90;;;;;;5023025;28;20491;-41
2023/08/31 00:26:05;;;;;;;5.70;4.20;;;18.00;99.90;;;;;;5021720;28;20435;-42
2023/08/31 00:28:31;;;;;;;4.13;3.70;;;18.10;99.90;;;;;;5016504;28;21077;-43
2023/08/31 00:31:03;;;;;;;4.30;3.90;;;18.00;99.90;;;;;;5016576;28;20471;-42
2023/08/31 00:33:30;;;;;;;4.30;3.90;;;18.10;99.90;;;;;;5016393;28;21106;-41
2023/08/31 00:36:01;;;;;;;4.33;3.87;;;18.00;99.90;;;;;;5015468;28;20790;-42
2023/08/31 00:38:28;;;;;;;3.60;3.30;;;18.00;99.90;;;;;;5016286;28;20444;-41
2023/08/31 00:40:55;;;;;;;3.87;3.47;;;18.10;99.90;;;;;;5016828;28;20448;-42
2023/08/31 00:43:22;;;;;;;4.33;3.93;;;18.00;99.90;;;;;;5016553;28;20493;-43
2023/08/31 00:45:51;;;;;;;3.70;3.40;;;18.00;99.90;;;;;;5017335;28;20421;-43
2023/08/31 00:48:19;;;;;;;4.17;3.77;;;18.00;99.90;;;;;;5016992;28;20421;-43
2023/08/31 00:50:46;;;;;;;4.10;3.70;;;17.70;99.90;;;;;;5016831;28;20911;-41
2023/08/31 00:53:14;;;;;;;4.00;3.60;;;18.00;99.90;;;;;;5016938;28;20427;-42
2023/08/31 00:55:41;;;;;;;5.17;3.80;;;17.90;99.90;;;;;;5017285;28;20501;-42
2023/08/31 00:58:08;;;;;;;5.97;4.13;;;17.90;99.90;;;;;;5015718;28;20524;-42
2023/08/31 01:00:45;;;;;;;3.90;3.50;;;16.30;99.90;;;;;;5033988;28;20552;-43
2023/08/31 01:03:17;;;;;;;5.27;4.87;;;17.80;99.90;;;;;;5027227;28;20542;-43
2023/08/31 01:05:52;;;;;;;8.50;3.83;;;17.90;99.90;;;;;;5029201;28;20432;-43
2023/08/31 01:08:33;;;;;;;4.00;3.70;;;17.80;99.90;;;;;;5027477;28;20458;-42
2023/08/31 01:11:08;;;;;;;4.20;3.23;;;17.80;99.90;;;;;;5029328;28;20473;-43
2023/08/31 01:13:36;;;;;;;3.80;3.50;;;17.70;99.90;;;;;;5042511;28;20469;-42
2023/08/31 01:16:07;;;;;;;6.33;3.93;;;17.70;99.90;;;;;;5023040;28;20440;-44
2023/08/31 01:18:37;;;;;;;4.17;3.83;;;17.70;99.90;;;;;;5025696;28;20439;-42
2023/08/31 01:21:19;;;;;;;4.83;3.93;;;17.60;99.90;;;;;;5017714;28;20455;-41
2023/08/31 01:23:52;;;;;;;4.37;4.00;;;17.60;99.90;;;;;;5014726;28;20493;-42
2023/08/31 01:26:19;;;;;;;4.80;4.30;;;17.60;99.90;;;;;;5014914;28;20501;-42
2023/08/31 01:28:45;;;;;;;6.17;5.40;;;17.50;99.90;;;;;;5014626;28;20448;-42
2023/08/31 01:31:12;;;;;;;5.30;4.80;;;17.50;99.90;;;;;;5017238;28;20873;-42
2023/08/31 01:33:39;;;;;;;5.27;4.60;;;17.50;99.90;;;;;;5016335;28;20443;-42
2023/08/31 01:36:13;;;;;;;4.87;4.37;;;17.50;99.90;;;;;;5014969;28;20974;-42
2023/08/31 01:38:46;;;;;;;4.83;4.43;;;17.50;99.90;;;;;;5014486;28;20460;-43
2023/08/31 01:41:17;;;;;;;4.97;4.53;;;17.50;99.90;;;;;;5015767;28;20428;-42
2023/08/31 01:43:45;;;;;;;4.60;4.20;;;17.50;99.90;;;;;;5014881;28;21034;-43
2023/08/31 01:46:12;;;;;;;4.30;3.90;;;17.40;99.90;;;;;;5015299;28;20829;-42
2023/08/31 01:48:40;;;;;;;5.67;4.33;;;17.30;99.90;;;;;;5013838;28;20452;-42
2023/08/31 01:51:07;;;;;;;3.87;3.57;;;17.40;99.90;;;;;;5013970;28;20421;-42
2023/08/31 01:53:34;;;;;;;4.53;4.07;;;17.30;99.90;;;;;;5015075;28;20462;-41
2023/08/31 01:56:01;;;;;;;4.63;4.10;;;17.30;99.90;;;;;;5030513;28;20447;-41
2023/08/31 01:58:29;;;;;;;4.40;4.00;;;17.00;99.90;;;;;;5013121;28;20965;-39
2023/08/31 02:00:56;;;;;;;4.80;4.30;;;17.30;99.90;;;;;;5013451;28;20443;-42
2023/08/31 02:03:23;;;;;;;4.10;3.70;;;17.20;99.90;;;;;;5013482;28;20474;-42
2023/08/31 02:05:49;;;;;;;3.90;3.50;;;17.20;99.90;;;;;;5013493;28;20446;-43
2023/08/31 02:08:17;;;;;;;4.47;4.07;;;17.10;99.90;;;;;;5014602;28;20442;-45
2023/08/31 02:10:45;;;;;;;4.00;3.23;;;17.20;99.90;;;;;;5015072;28;20775;-43
2023/08/31 02:13:11;;;;;;;4.10;3.70;;;17.20;99.90;;;;;;5017721;28;20965;-41
2023/08/31 02:15:40;;;;;;;3.80;3.27;;;17.00;99.90;;;;;;5015475;28;20975;-44
2023/08/31 02:18:08;;;;;;;4.20;3.00;;;17.40;99.90;;;;;;5015154;28;20450;-44
2023/08/31 02:20:35;;;;;;;3.27;2.97;;;17.10;99.90;;;;;;5018688;28;20448;-44
2023/08/31 02:23:02;;;;;;;2.43;2.23;;;17.00;99.90;;;;;;5018911;28;21105;-45
2023/08/31 02:25:29;;;;;;;2.63;2.40;;;17.00;99.90;;;;;;5019807;28;20462;-41
2023/08/31 02:27:55;;;;;;;2.60;2.37;;;17.00;99.90;;;;;;5018404;28;20448;-41
2023/08/31 02:30:22;;;;;;;2.57;2.37;;;16.90;99.90;;;;;;5017726;28;20448;-43
2023/08/31 02:32:50;;;;;;;2.80;2.50;;;16.90;99.90;;;;;;5014888;28;20442;-43
2023/08/31 02:35:17;;;;;;;3.87;2.90;;;16.90;99.90;;;;;;5014220;28;21066;-45
2023/08/31 02:37:43;;;;;;;5.30;2.70;;;16.90;99.90;;;;;;5013882;28;21085;-42
2023/08/31 02:40:11;;;;;;;2.57;2.37;;;16.80;99.90;;;;;;5012984;28;20520;-44
2023/08/31 02:42:38;;;;;;;4.50;2.67;;;16.80;99.90;;;;;;5014650;28;20428;-41
2023/08/31 02:45:06;;;;;;;3.37;2.83;;;17.00;99.90;;;;;;5012926;28;20461;-41
2023/08/31 02:47:32;;;;;;;3.80;2.97;;;16.80;99.90;;;;;;5013263;28;20419;-42
2023/08/31 02:50:00;;;;;;;3.03;2.73;;;17.10;99.90;;;;;;5012708;28;20617;-42
2023/08/31 02:52:27;;;;;;;3.50;3.00;;;16.80;99.90;;;;;;5013876;28;20430;-42
2023/08/31 02:54:53;;;;;;;3.20;2.90;;;16.70;99.90;;;;;;5014081;28;21078;-43
2023/08/31 02:57:21;;;;;;;4.00;3.30;;;16.70;99.90;;;;;;5013673;28;20408;-42
2023/08/31 02:59:51;;;;;;;3.30;3.00;;;16.70;99.90;;;;;;5012373;28;20428;-42
2023/08/31 03:02:18;;;;;;;4.40;2.80;;;16.60;99.90;;;;;;5013744;28;20475;-43
2023/08/31 03:04:44;;;;;;;3.07;2.60;;;16.60;99.90;;;;;;5011879;28;20479;-42
2023/08/31 03:07:15;;;;;;;3.47;3.03;;;16.60;99.90;;;;;;5011776;28;20460;-42
2023/08/31 03:09:42;;;;;;;4.17;2.77;;;16.70;99.90;;;;;;5012338;28;20842;-43
2023/08/31 03:12:09;;;;;;;6.20;2.60;;;16.70;99.90;;;;;;5012207;28;20456;-42
2023/08/31 03:14:35;;;;;;;3.63;3.13;;;16.70;99.90;;;;;;5013701;28;20454;-42
2023/08/31 03:17:03;;;;;;;3.37;2.90;;;16.70;99.90;;;;;;5013249;28;20809;-42
2023/08/31 03:19:29;;;;;;;3.93;2.90;;;16.70;99.90;;;;;;5028621;28;20503;-42
2023/08/31 03:21:56;;;;;;;2.97;2.67;;;16.80;99.90;;;;;;5013191;28;20434;-43
2023/08/31 03:24:24;;;;;;;3.97;3.10;;;16.80;99.90;;;;;;5012263;28;20487;-41
2023/08/31 03:26:50;;;;;;;4.20;3.70;;;16.80;99.90;;;;;;5011737;28;20454;-43
2023/08/31 03:29:17;;;;;;;3.33;3.03;;;16.80;99.90;;;;;;5013360;28;20444;-42
2023/08/31 03:31:43;;;;;;;3.20;2.87;;;16.40;99.90;;;;;;5011920;28;20943;-41
2023/08/31 03:34:10;;;;;;;3.47;2.90;;;16.80;99.90;;;;;;5012197;28;20450;-47
2023/08/31 03:36:37;;;;;;;3.37;3.07;;;16.70;99.90;;;;;;5011960;28;20450;-43
2023/08/31 03:39:04;;;;;;;3.50;2.83;;;16.80;99.90;;;;;;5013138;28;20443;-43
2023/08/31 03:41:32;;;;;;;3.73;2.93;;;16.60;99.90;;;;;;5013414;28;20858;-42
2023/08/31 03:43:59;;;;;;;7.23;3.23;;;16.60;99.90;;;;;;5012222;28;20483;-45
2023/08/31 03:46:26;;;;;;;3.07;2.63;;;16.60;99.90;;;;;;5011171;28;20457;-45
2023/08/31 03:48:53;;;;;;;4.03;3.00;;;16.50;99.90;;;;;;5011360;28;20437;-45
2023/08/31 03:51:20;;;;;;;3.30;2.47;;;16.50;99.90;;;;;;5010789;28;20505;-44
2023/08/31 03:53:47;;;;;;;3.87;3.53;;;16.50;99.90;;;;;;5011235;28;20546;-44
2023/08/31 03:56:14;;;;;;;2.67;2.47;;;16.50;99.90;;;;;;5011162;28;20489;-45
2023/08/31 03:58:43;;;;;;;3.87;2.73;;;16.50;99.90;;;;;;5010809;28;20974;-45
2023/08/31 04:01:10;;;;;;;4.13;3.50;;;16.60;99.90;;;;;;5012428;28;20461;-46
2023/08/31 04:03:38;;;;;;;4.60;4.03;;;16.60;99.90;;;;;;5011139;28;20851;-44
2023/08/31 04:06:05;;;;;;;5.60;3.23;;;16.30;99.90;;;;;;5012827;28;20401;-44
2023/08/31 04:08:32;;;;;;;4.67;3.70;;;16.60;99.90;;;;;;5012053;28;20407;-45
2023/08/31 04:10:58;;;;;;;4.47;4.07;;;16.60;99.90;;;;;;5013427;28;20408;-44
2023/08/31 04:13:25;;;;;;;6.47;4.13;;;16.60;99.90;;;;;;5014343;28;20826;-44
2023/08/31 04:15:55;;;;;;;5.20;4.60;;;16.30;99.90;;;;;;5013682;28;20454;-44
2023/08/31 04:18:22;;;;;;;4.90;4.40;;;16.60;99.90;;;;;;5011721;28;20836;-44
2023/08/31 04:20:50;;;;;;;6.40;4.73;;;16.50;99.90;;;;;;5012508;28;20446;-44
2023/08/31 04:23:17;;;;;;;5.03;4.60;;;16.60;99.90;;;;;;5013822;28;20448;-45
2023/08/31 04:25:44;;;;;;;7.93;4.70;;;16.60;99.90;;;;;;5012989;28;20474;-46
2023/08/31 04:28:10;;;;;;;5.50;4.73;;;16.30;99.90;;;;;;5013337;28;20437;-45
2023/08/31 04:30:37;;;;;;;5.30;4.50;;;16.60;99.90;;;;;;5014054;28;20949;-45
2023/08/31 04:33:06;;;;;;;5.60;5.00;;;16.60;99.90;;;;;;5013790;28;20440;-45
2023/08/31 04:35:33;;;;;;;5.93;5.30;;;16.60;99.90;;;;;;5013163;28;20468;-45
2023/08/31 04:38:00;;;;;;;6.70;6.00;;;16.70;99.90;;;;;;5012857;28;20442;-44
2023/08/31 04:40:28;;;;;;;7.03;6.33;;;16.70;99.90;;;;;;5013892;28;20873;-45
2023/08/31 04:42:54;;;;;;;6.23;5.63;;;16.60;99.90;;;;;;5013818;28;20432;-45
2023/08/31 04:45:21;;;;;;;7.10;5.93;;;16.60;99.90;;;;;;5013061;28;20857;-45
2023/08/31 04:47:49;;;;;;;6.90;6.23;;;16.60;99.90;;;;;;5012356;28;20433;-45
2023/08/31 04:50:17;;;;;;;9.50;7.47;;;16.60;99.90;;;;;;5012494;28;20440;-45
2023/08/31 04:52:43;;;;;;;8.00;7.30;;;16.60;99.90;;;;;;5012033;28;20434;-47
2023/08/31 04:55:12;;;;;;;10.30;7.97;;;16.60;99.90;;;;;;5011910;28;20432;-44
2023/08/31 04:57:39;;;;;;;8.77;7.40;;;16.30;99.90;;;;;;5010193;28;20521;-44
2023/08/31 05:00:08;;;;;;;9.83;7.70;;;16.70;99.90;;;;;;5012173;28;20440;-48
2023/08/31 05:02:35;;;;;;;10.10;9.10;;;16.60;99.90;;;;;;5013159;28;20496;-46
2023/08/31 05:05:02;;;;;;;10.60;8.70;;;16.60;99.90;;;;;;5015737;28;20530;-46
2023/08/31 05:07:30;;;;;;;11.30;7.90;;;16.60;99.90;;;;;;5016037;28;20450;-45
2023/08/31 05:09:57;;;;;;;12.93;7.73;;;16.40;99.90;;;;;;5016752;28;20796;-44
2023/08/31 05:12:23;;;;;;;9.23;8.30;;;16.50;99.90;;;;;;5017134;28;20415;-45
2023/08/31 05:14:50;;;;;;;10.10;8.00;;;16.50;99.90;;;;;;5014667;28;20526;-44
2023/08/31 05:17:16;;;;;;;9.27;7.90;;;16.50;99.90;;;;;;5016356;28;20421;-45
2023/08/31 05:19:43;;;;;;;8.40;7.60;;;16.60;99.90;;;;;;5015533;28;20442;-46
2023/08/31 05:22:10;;;;;;;8.57;7.80;;;16.60;99.90;;;;;;5015332;28;20438;-45
2023/08/31 05:24:38;;;;;;;8.77;7.97;;;16.60;99.90;;;;;;5015353;28;20494;-45
2023/08/31 05:27:05;;;;;;;8.80;7.90;;;16.70;99.90;;;;;;5014726;28;20438;-47
2023/08/31 05:29:31;;;;;;;9.20;8.30;;;16.70;99.90;;;;;;5015115;28;20446;-44
2023/08/31 05:31:58;;;;;;;8.90;8.07;;;16.70;99.90;;;;;;5014882;28;20439;-45
2023/08/31 05:34:25;;;;;;;11.73;8.33;;;16.80;99.90;;;;;;5014850;28;20512;-46
2023/08/31 05:36:52;;;;;;;9.00;8.13;;;16.80;99.90;;;;;;5014854;28;20438;-46
2023/08/31 05:39:18;;;;;;;9.00;8.10;;;16.90;99.90;;;;;;5014939;28;20441;-45
2023/08/31 05:41:46;;;;;;;10.80;8.67;;;16.60;99.90;;;;;;5014880;28;20450;-45
2023/08/31 05:44:13;;;;;;;10.10;8.53;;;16.90;99.90;;;;;;5014777;28;20909;-46
2023/08/31 05:46:40;;;;;;;10.03;9.03;;;16.80;99.90;;;;;;5014539;28;20910;-46
2023/08/31 05:49:07;;;;;;;10.47;8.60;;;16.90;99.90;;;;;;5014207;28;20467;-45
2023/08/31 05:51:34;;;;;;;7.30;6.37;;;16.70;99.90;;;;;;5014358;28;20796;-45
2023/08/31 05:54:02;;;;;;;9.80;8.37;;;16.70;99.90;;;;;;5014709;28;20480;-46
2023/08/31 05:56:29;;;;;;;10.00;8.80;;;16.90;99.90;;;;;;5014608;28;20432;-45
2023/08/31 05:58:57;;;;;;;8.70;7.80;;;16.90;99.90;;;;;;5014873;28;20505;-46
2023/08/31 06:01:24;;;;;;;9.47;8.23;;;16.90;99.90;;;;;;5013980;28;20429;-45
2023/08/31 06:03:50;;;;;;;9.90;8.67;;;16.90;99.90;;;;;;5013917;28;20525;-44
2023/08/31 06:06:17;;;;;;;8.00;7.30;;;16.90;99.90;;;;;;5013237;28;20495;-45
2023/08/31 06:08:43;;;;;;;10.07;7.80;;;16.90;99.90;;;;;;5014529;28;20409;-46
2023/08/31 06:11:10;;;;;;;9.03;8.13;;;16.90;99.90;;;;;;5014182;28;20409;-45
2023/08/31 06:13:38;;;;;;;9.43;8.53;;;16.90;99.90;;;;;;5014101;28;20459;-45
2023/08/31 06:16:05;;;;;;;9.27;8.03;;;16.90;99.90;;;;;;5013513;28;20486;-45
2023/08/31 06:18:32;;;;;;;11.40;9.13;;;17.20;99.90;;;;;;5013632;28;20457;-45
2023/08/31 06:20:59;;;;;;;6.83;6.13;;;16.80;99.90;;;;;;5014042;28;20442;-45
2023/08/31 06:23:25;;;;;;;10.03;8.10;;;17.00;99.90;;;;;;5014445;28;20434;-45
2023/08/31 06:25:52;;;;;;;9.23;7.17;;;17.10;99.90;;;;;;5014413;28;20960;-45
2023/08/31 06:28:19;;;;;;;9.37;8.33;;;17.20;99.90;;;;;;5013870;28;20420;-45
2023/08/31 06:30:46;;;;;;;9.17;7.60;;;17.20;99.90;;;;;;5014154;28;20505;-45
2023/08/31 06:33:14;;;;;;;11.53;7.70;;;17.10;99.90;;;;;;5014440;28;20497;-45
2023/08/31 06:35:41;;;;;;;8.90;7.57;;;17.10;99.90;;;;;;5014072;28;20446;-46
2023/08/31 06:38:07;;;;;;;8.67;7.87;;;17.10;99.90;;;;;;5013881;28;20443;-46
2023/08/31 06:40:34;;;;;;;12.13;7.30;;;17.20;99.90;;;;;;5013722;28;20482;-47
2023/08/31 06:43:00;;;;;;;10.33;7.73;;;17.30;99.90;;;;;;5013847;28;20436;-45
2023/08/31 06:45:27;;;;;;;10.83;6.90;;;17.30;99.90;;;;;;5013410;28;20594;-45
2023/08/31 06:47:54;;;;;;;9.13;7.87;;;17.30;99.90;;;;;;5013218;28;20435;-46
2023/08/31 06:50:22;;;;;;;11.93;8.07;;;17.40;99.90;;;;;;5013263;28;20438;-47
2023/08/31 06:52:48;;;;;;;10.20;8.30;;;17.40;99.90;;;;;;5012079;28;20451;-46
2023/08/31 06:55:15;;;;;;;7.30;6.60;;;17.50;99.90;;;;;;5013050;28;20513;-45
2023/08/31 06:57:43;;;;;;;7.90;7.10;;;17.60;99.90;;;;;;5013196;28;20506;-45
2023/08/31 07:00:11;;;;;;;8.83;7.10;;;17.70;99.90;;;;;;5013921;28;20448;-46
2023/08/31 07:02:41;;;;;;;9.50;7.67;;;17.80;99.90;;;;;;5028944;28;20484;-47
2023/08/31 07:05:07;;;;;;;7.70;7.00;;;17.90;99.90;;;;;;5013919;28;20453;-46
2023/08/31 07:07:35;;;;;;;9.70;8.10;;;17.90;99.90;;;;;;5013657;28;20458;-45
2023/08/31 07:10:02;;;;;;;9.80;7.90;;;17.90;99.90;;;;;;5013579;28;20443;-45
2023/08/31 07:12:28;;;;;;;8.30;6.40;;;17.90;99.90;;;;;;5013212;28;20435;-45
2023/08/31 07:14:56;;;;;;;6.53;5.90;;;17.90;99.90;;;;;;5013146;28;20458;-45
2023/08/31 07:17:23;;;;;;;10.43;6.30;;;17.90;99.90;;;;;;5011285;28;20451;-45
2023/08/31 07:19:49;;;;;;;5.97;5.43;;;17.90;99.90;;;;;;5013108;28;20444;-46
2023/08/31 07:22:16;;;;;;;12.60;7.13;;;17.80;99.90;;;;;;5013459;28;21004;-44
2023/08/31 07:24:45;;;;;;;6.93;6.20;;;17.50;99.90;;;;;;5012734;28;20459;-45
2023/08/31 07:27:11;;;;;;;8.53;5.60;;;17.70;99.90;;;;;;5012187;28;20448;-45
2023/08/31 07:29:38;;;;;;;9.43;6.00;;;17.70;99.90;;;;;;5012907;28;20936;-44
2023/08/31 07:32:05;;;;;;;6.53;5.83;;;17.70;99.90;;;;;;5013062;28;20436;-45
2023/08/31 07:34:32;;;;;;;8.40;5.53;;;17.60;99.90;;;;;;5012966;28;20463;-48
2023/08/31 07:36:59;;;;;;;6.87;6.17;;;17.70;99.90;;;;;;5012897;28;20439;-45
2023/08/31 07:39:27;;;;;;;7.70;5.00;;;17.70;99.90;;;;;;5027852;28;20454;-46
2023/08/31 07:41:55;;;;;;;9.40;4.70;;;17.70;99.90;;;;;;5011542;28;20451;-45
2023/08/31 07:44:24;;;;;;;7.67;4.70;;;17.90;99.90;;;;;;5013186;28;20471;-44
2023/08/31 07:46:51;;;;;;;8.30;5.00;;;17.90;99.90;;;;;;5012271;28;20497;-47
2023/08/31 07:49:17;;;;;;;10.40;4.80;;;18.10;99.90;;;;;;5012838;28;20808;-45
2023/08/31 07:51:44;;;;;;;6.30;4.70;;;18.40;99.90;;;;;;5011174;28;20457;-45
2023/08/31 07:54:10;;;;;;;6.80;4.33;;;18.20;99.90;;;;;;5012497;28;20455;-45
2023/08/31 07:56:40;;;;;;;7.10;5.07;;;18.20;99.90;;;;;;5012748;28;20925;-44
2023/08/31 07:59:08;;;;;;;7.07;4.53;;;18.20;99.90;;;;;;5012158;28;20459;-45
2023/08/31 08:01:34;;;;;;;5.90;4.80;;;18.30;99.90;;;;;;5013449;28;20494;-47
2023/08/31 08:04:01;;;;;;;9.43;4.60;;;18.20;99.90;;;;;;5012652;28;20456;-45
2023/08/31 08:06:27;;;;;;;6.53;4.37;;;18.40;99.90;;;;;;5029265;28;20932;-45
2023/08/31 08:08:54;;;;;;;4.57;3.70;;;18.40;99.90;;;;;;5032374;28;20456;-45
2023/08/31 08:11:23;;;;;;;6.77;4.27;;;18.30;99.90;;;;;;5032527;28;20410;-45
2023/08/31 08:13:49;;;;;;;7.17;4.10;;;18.00;99.90;;;;;;5032607;28;20464;-46
2023/08/31 08:16:17;;;;;;;7.20;3.90;;;18.10;99.90;;;;;;5032568;28;20438;-45
2023/08/31 08:18:44;;;;;;;5.77;3.23;;;18.10;99.90;;;;;;5032743;28;20526;-45
2023/08/31 08:21:10;;;;;;;6.57;3.93;;;18.10;99.90;;;;;;5032096;28;20831;-46
2023/08/31 08:23:37;;;;;;;16.17;4.50;;;18.00;99.90;;;;;;5031122;28;20474;-45
2023/08/31 08:26:04;;;;;;;7.63;3.70;;;18.00;99.90;;;;;;5033221;28;20501;-45
2023/08/31 08:28:30;;;;;;;3.50;3.17;;;18.10;99.90;;;;;;5032943;28;20431;-46
2023/08/31 08:30:57;;;;;;;5.47;3.17;;;18.10;99.90;;;;;;5033299;28;20447;-46
2023/08/31 08:33:25;;;;;;;5.40;2.87;;;18.20;99.90;;;;;;5034654;28;20428;-44
2023/08/31 08:35:51;;;;;;;3.17;2.70;;;18.30;99.90;;;;;;5034802;28;20446;-44
2023/08/31 08:38:18;;;;;;;5.67;2.90;;;18.30;99.90;;;;;;5036324;28;20909;-46
2023/08/31 08:40:44;;;;;;;6.90;2.90;;;18.40;99.90;;;;;;5041952;28;20454;-45
2023/08/31 08:43:11;;;;;;;6.27;3.20;;;18.50;99.90;;;;;;5039589;28;20434;-46
2023/08/31 08:45:41;;;;;;;7.43;2.63;;;18.50;99.90;;;;;;5037720;28;20485;-45
2023/08/31 08:48:08;;;;;;;12.13;3.13;;;18.60;99.90;;;;;;5036214;28;20452;-47
2023/08/31 08:50:37;;;;;;;6.17;2.47;;;18.70;99.90;;;;;;5035917;28;20454;-46
2023/08/31 08:53:04;;;;;;;4.47;2.67;;;18.70;99.90;;;;;;5036605;28;20526;-45
2023/08/31 08:55:32;;;;;;;3.47;2.23;;;18.90;99.90;;;;;;5036457;28;20430;-46
2023/08/31 08:58:00;;;;;;;4.97;2.20;;;18.90;99.90;;;;;;5035700;28;20436;-45
2023/08/31 09:00:27;;;;;;;4.33;1.93;;;19.00;99.90;;;;;;5032864;28;20577;-45
2023/08/31 09:02:54;;;;;;;3.97;1.60;;;19.00;99.90;;;;;;5035013;28;20530;-46
2023/08/31 09:05:20;;;;;;;5.20;2.03;;;19.00;99.90;;;;;;5035017;28;20526;-45
2023/08/31 09:08:02;;;;;;;7.17;2.40;;;19.00;99.90;;;;;;5035037;28;20846;-48
2023/08/31 09:10:35;;;;;;;10.47;2.90;;;19.10;99.90;;;;;;5034852;28;20455;-46
2023/08/31 09:13:04;;;;;;;7.50;2.10;;;19.10;99.90;;;;;;5034743;28;20829;-46
2023/08/31 09:15:37;;;;;;;4.23;2.03;;;19.10;99.90;;;;;;5038457;28;20463;-45
2023/08/31 09:18:05;;;;;;;5.93;3.10;;;19.10;99.90;;;;;;5054811;28;20796;-46
2023/08/31 09:20:32;;;;;;;4.60;2.00;;;19.10;99.90;;;;;;5055697;28;20421;-45
2023/08/31 09:22:59;;;;;;;5.77;2.23;;;19.10;99.90;;;;;;5055639;28;21009;-46
2023/08/31 09:25:27;;;;;;;8.70;2.10;;;19.10;99.90;;;;;;5055255;28;20450;-45
2023/08/31 09:27:53;;;;;;;2.90;2.03;;;19.30;99.90;;;;;;5055845;28;20447;-45
2023/08/31 09:30:20;;;;;;;4.70;2.00;;;19.30;99.50;;;;;;5054689;28;20800;-45
2023/08/31 09:32:52;;;;;;;9.23;1.77;;;19.70;98.60;;;;;;5055064;28;20436;-45
2023/08/31 09:35:19;;;;;;;7.40;1.90;;;19.60;98.20;;;;;;5035372;28;20834;-44
2023/08/31 09:37:56;;;;;;;2.70;2.10;;;19.60;98.40;;;;;;5033593;28;20903;-44
2023/08/31 09:40:22;;;;;;;2.83;2.20;;;19.70;98.30;;;;;;5035038;28;20448;-45
2023/08/31 09:42:51;;;;;;;6.10;2.00;;;19.60;98.10;;;;;;5034519;28;20435;-44
2023/08/31 09:45:19;;;;;;;7.80;2.90;;;19.80;98.30;;;;;;5034456;28;20978;-45
2023/08/31 09:47:45;;;;;;;4.73;2.27;;;19.40;98.30;;;;;;5034361;28;20910;-45
2023/08/31 09:50:12;;;;;;;3.83;1.77;;;19.40;98.50;;;;;;5033197;28;20450;-44
2023/08/31 09:52:41;;;;;;;3.20;2.23;;;19.30;98.60;;;;;;5043331;28;20457;-46
2023/08/31 09:55:09;;;;;;;4.67;2.07;;;19.30;98.50;;;;;;5045055;28;20474;-46
2023/08/31 09:57:35;;;;;;;5.07;2.60;;;19.30;98.40;;;;;;5034490;28;20444;-44
2023/08/31 10:00:05;;;;;;;6.27;2.20;;;19.40;98.30;;;;;;5029622;28;20453;-46
2023/08/31 10:02:32;;;;;;;3.97;1.80;;;19.50;98.00;;;;;;5035551;28;20817;-45
2023/08/31 10:05:00;;;;;;;5.33;3.80;;;19.50;97.80;;;;;;5033975;28;20465;-46
2023/08/31 10:07:27;;;;;;;3.97;2.23;;;19.60;97.70;;;;;;5038974;28;20476;-45
2023/08/31 10:09:54;;;;;;;4.37;2.10;;;19.50;97.10;;;;;;5054666;28;20437;-44
2023/08/31 10:12:23;;;;;;;4.40;2.40;;;19.60;97.40;;;;;;5053581;28;20435;-45
2023/08/31 10:14:52;;;;;;;4.07;2.30;;;19.70;96.90;;;;;;5054284;28;20219;-45
2023/08/31 10:17:21;;;;;;;12.40;2.37;;;19.70;96.90;;;;;;5036250;28;20816;-47
2023/08/31 10:19:48;;;;;;;4.27;2.00;;;19.60;96.90;;;;;;5034138;28;20430;-46
2023/08/31 10:22:15;;;;;;;3.33;2.30;;;19.80;97.00;;;;;;5033569;28;20440;-45
2023/08/31 10:25:03;;;;;;;4.70;2.03;;;19.50;96.60;;;;;;5040348;28;20437;-45
2023/08/31 10:27:36;;;;;;;4.20;2.17;;;19.90;96.30;;;;;;5039951;28;20493;-45
2023/08/31 10:30:15;;;;;;;3.97;1.90;;;20.00;96.20;;;;;;5013599;28;20445;-45
2023/08/31 10:32:43;;;;;;;4.10;1.77;;;20.10;96.00;;;;;;5017826;28;20480;-45
2023/08/31 10:35:10;;;;;;;5.97;2.37;;;20.20;95.90;;;;;;5033811;28;20429;-47
2023/08/31 10:37:36;;;;;;;3.20;1.90;;;20.30;95.40;;;;;;5032341;28;20994;-44
2023/08/31 10:40:11;;;;;;;9.60;3.97;;;20.60;93.90;;;;;;5034968;28;20434;-44
2023/08/31 10:42:45;;;;;;;5.00;1.57;;;20.40;94.60;;;;;;5033982;28;20439;-46
2023/08/31 10:45:12;;;;;;;5.10;1.97;;;20.00;96.30;;;;;;5031552;28;20473;-45
2023/08/31 10:47:39;;;;;;;3.87;2.10;;;19.60;96.60;;;;;;5033693;28;20482;-43
2023/08/31 10:50:22;;;;;;;3.27;1.93;;;19.50;97.30;;;;;;5033713;28;20436;-45
2023/08/31 10:52:50;;;;;;;3.37;1.63;;;19.40;98.60;;;;;;5033706;28;20441;-45
2023/08/31 10:55:16;;;;;;;6.07;1.97;;;19.20;98.50;;;;;;5032926;28;20554;-46
2023/08/31 10:57:47;;;;;;;4.20;1.93;;;19.10;98.90;;;;;;5033453;28;20440;-44
2023/08/31 11:00:14;;;;;;;4.80;2.28;;;19.20;99.40;;;;;;5032803;28;20416;-44
2023/08/31 11:02:44;;;;;;;5.18;3.10;;;19.20;99.90;;;;;;5032710;28;20471;-45
2023/08/31 11:05:11;;;;;;;4.17;2.23;;;19.40;99.90;;;;;;5033237;28;20730;-44
2023/08/31 11:07:41;;;;;;;4.07;2.30;;;19.60;99.90;;;;;;5032421;28;20561;-45
2023/08/31 11:10:09;;;;;;;7.57;3.40;;;19.40;99.90;;;;;;5032602;28;20470;-45
2023/08/31 11:12:36;;;;;;;4.53;2.53;;;19.40;99.90;;;;;;5030610;28;20488;-45
2023/08/31 11:15:04;;;;;;;4.53;2.70;;;19.40;99.90;;;;;;5012678;28;20452;-45
2023/08/31 11:17:30;;;;;;;7.70;2.80;;;19.40;99.90;;;;;;5012806;28;20443;-45
2023/08/31 11:19:58;;;;;;;6.13;2.70;;;19.40;99.90;;;;;;5013197;28;20410;-45
2023/08/31 11:22:25;;;;;;;8.10;3.30;;;19.50;99.90;;;;;;5012902;28;20447;-45
2023/08/31 11:24:53;;;;;;;5.40;3.13;;;19.70;99.90;;;;;;5012563;28;20993;-45
2023/08/31 11:27:20;;;;;;;4.17;2.57;;;19.80;99.90;;;;;;5012486;28;20505;-46
2023/08/31 11:29:47;;;;;;;9.43;2.27;;;20.00;99.90;;;;;;5012544;28;20533;-45
2023/08/31 11:32:14;;;;;;;6.88;2.63;;;20.10;99.90;;;;;;5012917;28;20339;-45
2023/08/31 11:34:45;;;;;;;4.43;2.90;;;20.20;99.90;;;;;;5020347;28;20920;-45
2023/08/31 11:37:15;;;;;;;5.60;3.60;;;20.70;99.70;;;;;;5052444;28;20710;-45
2023/08/31 11:39:43;;;;;;;6.53;3.10;;;20.60;99.90;;;;;;5053278;28;20440;-46
2023/08/31 11:42:11;;;;;;;3.83;2.77;;;20.60;99.90;;;;;;5052806;28;20426;-43
2023/08/31 11:44:38;;;;;;;4.53;2.70;;;20.70;99.80;;;;;;5052032;28;20444;-44
2023/08/31 11:47:06;;;;;;;4.60;2.43;;;20.70;99.30;;;;;;5051794;28;20485;-45
2023/08/31 11:49:33;;;;;;;3.60;2.20;;;20.70;99.20;;;;;;5052274;28;20817;-45
2023/08/31 11:52:00;;;;;;;3.87;2.50;;;20.60;99.00;;;;;;5052063;28;20791;-44
2023/08/31 11:54:26;;;;;;;5.53;3.13;;;20.50;99.10;;;;;;5051984;28;20459;-43
2023/08/31 11:56:53;;;;;;;4.50;2.50;;;20.50;99.10;;;;;;5051514;28;20420;-45
2023/08/31 11:59:22;;;;;;;7.10;2.37;;;20.30;99.10;;;;;;5051787;28;20441;-46
2023/08/31 12:01:51;;;;;;;5.73;2.73;;;20.30;98.90;;;;;;5051183;28;21058;-44
2023/08/31 12:04:23;;;;;;;5.97;2.30;;;20.20;98.90;;;;;;5051312;28;20465;-46
2023/08/31 12:06:51;;;;;;;6.07;2.90;;;20.20;98.80;;;;;;5050895;28;20458;-44
2023/08/31 12:09:18;;;;;;;3.87;3.00;;;20.20;98.80;;;;;;5052170;28;20428;-46
2023/08/31 12:11:51;;;;;;;6.20;3.47;;;19.90;99.00;;;;;;5050577;28;20453;-44
2023/08/31 12:14:23;;;;;;;6.20;3.03;;;19.90;99.60;;;;;;5034093;28;20468;-42
2023/08/31 12:16:50;;;;;;;5.10;2.50;;;20.00;99.90;;;;;;5028272;28;20451;-42
2023/08/31 12:19:17;;;;;;;3.77;2.30;;;19.90;99.90;;;;;;5050637;28;20837;-46
2023/08/31 12:21:45;;;;;;;2.47;1.67;;;20.00;99.50;;;;;;5035490;28;20445;-42
2023/08/31 12:24:12;;;;;;;11.00;2.63;;;20.10;98.80;;;;;;5036009;28;20553;-43
2023/08/31 12:26:39;;;;;;;4.10;2.43;;;20.30;98.50;;;;;;5033801;28;20482;-42
2023/08/31 12:29:06;;;;;;;5.77;2.63;;;20.60;98.50;;;;;;5032721;28;20434;-42
2023/08/31 12:31:34;;;;;;;5.47;2.47;;;20.70;97.90;;;;;;5033148;28;20824;-42
2023/08/31 12:34:04;;;;;;;4.33;2.70;;;20.80;97.60;;;;;;5032930;28;20436;-40
2023/08/31 12:36:31;;;;;;;3.87;2.67;;;21.00;97.70;;;;;;5033042;28;20865;-50
2023/08/31 12:39:01;;;;;;;4.57;2.57;;;21.10;97.90;;;;;;5033321;28;20428;-44
2023/08/31 12:41:27;;;;;;;5.87;2.93;;;21.20;98.00;;;;;;5034271;28;20950;-42
2023/08/31 12:43:54;;;;;;;4.07;3.13;;;21.20;97.70;;;;;;5034173;28;20472;-46
2023/08/31 12:46:20;;;;;;;7.90;3.23;;;21.20;97.40;;;;;;5033898;28;20441;-44
2023/08/31 12:48:49;;;;;;;5.17;3.17;;;21.10;97.50;;;;;;5033223;28;20781;-53